Time;durP1;ratioP1;P1;durP2;ratioP2;P2;SDS_P1;SDS_P2;PMS_P1;PMS_P2;Temp;Humidity;BMP_temperature;BMP_pressure;BME280_temperature;BME280_humidity;BME280_pressure;Samples;Min_cycle;Max_cycle;Signal;HPM_P1;HPM_P2
2021/12/23 00:01:34;;;;;;;23.37;13.60;;;1.20;99.90;;;;;;5069985;28;20177;-84
2021/12/23 00:04:00;;;;;;;22.47;12.50;;;1.20;99.90;;;;;;5073392;28;20609;-85
2021/12/23 00:06:26;;;;;;;23.57;12.63;;;1.20;99.90;;;;;;5058170;28;20164;-85
2021/12/23 00:08:52;;;;;;;24.50;13.50;;;1.00;99.90;;;;;;5057823;28;20176;-78
2021/12/23 00:11:19;;;;;;;25.53;12.87;;;0.90;99.90;;;;;;5057612;28;20182;-87
2021/12/23 00:13:58;;;;;;;25.73;13.83;;;1.00;99.90;;;;;;5074381;28;20199;-78
2021/12/23 00:16:47;;;;;;;23.87;12.43;;;1.00;99.90;;;;;;5075433;28;20172;-89
2021/12/23 00:19:22;;;;;;;25.23;12.10;;;1.20;99.90;;;;;;5062963;28;20276;-78
2021/12/23 00:24:34;;;;;;;23.17;11.73;;;1.10;99.90;;;;;;5056881;28;20197;-77
2021/12/23 00:27:01;;;;;;;23.43;11.83;;;0.40;99.90;;;;;;5070679;28;20524;-88
2021/12/23 00:29:28;;;;;;;23.80;11.87;;;0.40;99.90;;;;;;5038009;28;20685;-85
2021/12/23 00:31:54;;;;;;;22.73;11.40;;;0.20;99.90;;;;;;5037699;28;20185;-77
2021/12/23 00:34:20;;;;;;;24.00;11.70;;;0.00;99.90;;;;;;5036776;28;20177;-77
2021/12/23 00:36:46;;;;;;;23.20;12.17;;;0.30;99.90;;;;;;5053284;28;20180;-77
2021/12/23 00:39:14;;;;;;;19.60;11.33;;;-0.10;99.90;;;;;;5053865;28;20200;-78
2021/12/23 00:41:42;;;;;;;26.00;12.07;;;0.40;99.90;;;;;;5070085;28;20183;-81
2021/12/23 00:44:08;;;;;;;22.87;11.67;;;0.40;99.90;;;;;;5037216;28;20212;-87
2021/12/23 00:46:34;;;;;;;22.53;12.43;;;0.70;99.90;;;;;;5036751;28;20200;-85
2021/12/23 00:49:05;;;;;;;22.20;11.60;;;0.90;99.90;;;;;;5056758;28;20173;-77
2021/12/23 00:51:34;;;;;;;21.90;12.17;;;1.00;99.90;;;;;;5057688;28;20180;-85
2021/12/23 00:54:05;;;;;;;25.50;12.40;;;0.70;99.90;;;;;;5041519;28;20179;-83
2021/12/23 00:56:33;;;;;;;22.13;11.23;;;0.90;99.90;;;;;;5041778;28;20173;-85
2021/12/23 00:59:00;;;;;;;22.87;12.67;;;0.80;99.90;;;;;;5057455;28;20249;-77
2021/12/23 01:01:26;;;;;;;23.47;12.47;;;0.00;99.90;;;;;;5039723;28;20556;-87
2021/12/23 01:03:52;;;;;;;22.27;13.07;;;-0.30;99.90;;;;;;5057124;28;20165;-78
2021/12/23 01:06:18;;;;;;;20.70;12.00;;;-0.30;99.90;;;;;;5038766;28;20200;-76
2021/12/23 01:08:43;;;;;;;22.67;11.67;;;0.10;99.90;;;;;;5056500;28;20608;-86
2021/12/23 01:11:10;;;;;;;21.97;12.33;;;0.40;99.90;;;;;;5039145;28;20227;-84
2021/12/23 01:13:37;;;;;;;24.83;13.13;;;0.80;99.90;;;;;;5053237;28;20177;-85
2021/12/23 01:16:13;;;;;;;22.17;11.83;;;1.30;99.90;;;;;;5036305;28;20262;-78
2021/12/23 01:18:43;;;;;;;24.40;12.73;;;0.90;99.90;;;;;;5069297;28;20209;-78
2021/12/23 01:21:16;;;;;;;25.13;12.40;;;0.80;99.90;;;;;;5035997;28;20274;-77
2021/12/23 01:23:53;;;;;;;22.00;10.73;;;0.20;99.90;;;;;;5040916;28;20169;-84
2021/12/23 01:26:22;;;;;;;23.13;12.53;;;0.20;99.90;;;;;;5072658;28;20156;-85
2021/12/23 01:28:54;;;;;;;24.57;13.27;;;0.00;99.90;;;;;;5074248;28;20191;-78
2021/12/23 01:31:23;;;;;;;24.17;12.27;;;0.10;99.90;;;;;;5072853;28;20172;-77
2021/12/23 01:33:48;;;;;;;22.50;13.20;;;0.30;99.90;;;;;;5055510;28;20181;-78
2021/12/23 01:36:14;;;;;;;22.33;11.57;;;0.50;99.90;;;;;;5071714;28;20177;-75
2021/12/23 01:38:40;;;;;;;23.73;12.43;;;1.00;99.90;;;;;;5072173;28;20219;-77
2021/12/23 01:41:07;;;;;;;22.83;12.47;;;1.10;99.90;;;;;;5039143;28;20645;-86
2021/12/23 01:43:35;;;;;;;22.13;11.83;;;1.00;99.90;;;;;;5072802;28;20180;-86
2021/12/23 01:46:01;;;;;;;23.30;12.53;;;1.10;99.90;;;;;;5071423;28;20169;-77
2021/12/23 01:48:27;;;;;;;22.63;12.30;;;1.30;99.90;;;;;;5055636;28;20173;-78
2021/12/23 01:50:53;;;;;;;24.23;11.67;;;1.30;99.90;;;;;;5054810;28;20188;-79
2021/12/23 01:53:19;;;;;;;23.17;11.53;;;1.30;99.90;;;;;;5054905;28;20176;-86
2021/12/23 01:55:45;;;;;;;23.10;11.27;;;1.50;99.90;;;;;;5071247;28;20639;-85
2021/12/23 01:58:13;;;;;;;27.37;13.27;;;1.40;99.90;;;;;;5055603;28;20360;-77
2021/12/23 02:00:43;;;;;;;20.33;11.43;;;1.30;99.90;;;;;;5041593;28;20180;-86
2021/12/23 02:03:10;;;;;;;22.93;12.60;;;0.40;99.90;;;;;;5052152;28;20534;-83
2021/12/23 02:05:36;;;;;;;23.80;12.77;;;0.20;99.90;;;;;;5035744;28;20169;-77
2021/12/23 02:08:02;;;;;;;23.63;12.63;;;0.60;99.90;;;;;;5035731;28;20268;-86
2021/12/23 02:10:29;;;;;;;22.70;12.37;;;0.70;99.90;;;;;;5068323;28;20176;-77
2021/12/23 02:12:56;;;;;;;21.50;11.10;;;0.00;99.90;;;;;;5051681;28;20180;-79
2021/12/23 02:15:22;;;;;;;20.93;12.03;;;-0.40;99.90;;;;;;5067558;28;20193;-77
2021/12/23 02:17:48;;;;;;;25.43;12.20;;;-0.30;99.90;;;;;;5067830;28;20528;-77
2021/12/23 02:20:20;;;;;;;21.83;12.70;;;0.20;99.90;;;;;;5051397;28;20466;-77
2021/12/23 02:22:47;;;;;;;23.80;11.87;;;0.70;99.90;;;;;;5051084;28;20162;-77
2021/12/23 02:25:14;;;;;;;22.10;11.30;;;0.90;99.90;;;;;;5066744;28;20652;-77
2021/12/23 02:27:40;;;;;;;22.23;11.23;;;0.60;99.90;;;;;;5051636;28;20201;-77
2021/12/23 02:30:11;;;;;;;19.93;12.00;;;0.90;99.90;;;;;;5059586;28;20186;-76
2021/12/23 02:32:38;;;;;;;21.37;12.37;;;1.10;99.90;;;;;;5057677;28;20179;-85
2021/12/23 02:35:09;;;;;;;24.80;12.27;;;1.20;99.90;;;;;;5054212;28;20245;-84
2021/12/23 02:37:35;;;;;;;23.57;12.13;;;1.00;99.90;;;;;;5052839;28;20165;-82
2021/12/23 02:40:02;;;;;;;20.50;10.77;;;0.90;99.90;;;;;;5054586;28;20175;-85
2021/12/23 02:42:27;;;;;;;23.27;11.57;;;0.60;99.90;;;;;;5054464;28;20168;-84
2021/12/23 02:44:55;;;;;;;20.40;11.57;;;0.40;99.90;;;;;;5053915;28;20183;-86
2021/12/23 02:47:21;;;;;;;21.60;12.17;;;-0.20;99.90;;;;;;5072120;28;20215;-83
2021/12/23 02:49:47;;;;;;;23.10;10.83;;;0.20;99.90;;;;;;5071222;28;20264;-85
2021/12/23 02:52:13;;;;;;;21.83;11.43;;;0.60;99.90;;;;;;5052839;28;20195;-77
2021/12/23 02:54:40;;;;;;;22.27;11.43;;;1.00;99.90;;;;;;5037126;28;20486;-77
2021/12/23 02:57:06;;;;;;;23.40;12.37;;;1.10;99.90;;;;;;5052858;28;20188;-85
2021/12/23 02:59:32;;;;;;;22.03;12.03;;;1.20;99.90;;;;;;5071922;28;20192;-87
2021/12/23 03:01:58;;;;;;;20.87;11.70;;;1.30;99.90;;;;;;5072000;28;20167;-82
2021/12/23 03:04:24;;;;;;;24.93;11.43;;;1.40;99.90;;;;;;5071784;28;20198;-85
2021/12/23 03:06:49;;;;;;;20.97;11.10;;;1.40;99.90;;;;;;5054030;28;20599;-86
2021/12/23 03:09:15;;;;;;;20.77;11.23;;;1.30;99.90;;;;;;5054976;28;20667;-79
2021/12/23 03:11:41;;;;;;;22.47;11.03;;;1.40;99.90;;;;;;5037662;28;20662;-87
2021/12/23 03:14:08;;;;;;;23.47;11.23;;;1.50;99.90;;;;;;5036654;28;20180;-85
2021/12/23 03:16:35;;;;;;;21.70;11.87;;;1.50;99.90;;;;;;5071821;28;20187;-83
2021/12/23 03:19:02;;;;;;;22.90;11.20;;;1.30;99.90;;;;;;5069309;28;20214;-85
2021/12/23 03:21:27;;;;;;;19.63;11.20;;;1.60;99.90;;;;;;5070581;28;20369;-78
2021/12/23 03:23:54;;;;;;;20.97;10.73;;;1.20;99.90;;;;;;5053378;28;20188;-86
2021/12/23 03:26:20;;;;;;;18.47;10.37;;;1.00;99.90;;;;;;5086550;28;20536;-86
2021/12/23 03:28:47;;;;;;;19.97;10.80;;;0.90;99.90;;;;;;5070666;28;20168;-85
2021/12/23 03:31:13;;;;;;;20.33;11.17;;;1.00;99.90;;;;;;5070050;28;20695;-86
2021/12/23 03:33:39;;;;;;;20.37;10.63;;;1.40;99.90;;;;;;5071249;28;20180;-87
2021/12/23 03:36:05;;;;;;;19.53;10.50;;;1.10;99.90;;;;;;5054769;28;20184;-87
2021/12/23 03:38:31;;;;;;;21.63;11.43;;;1.20;99.90;;;;;;5074278;28;20701;-78
2021/12/23 03:40:57;;;;;;;18.97;10.10;;;1.00;99.90;;;;;;5075032;28;20256;-86
2021/12/23 03:43:23;;;;;;;22.20;11.67;;;0.70;99.90;;;;;;5074460;28;20247;-77
2021/12/23 03:45:50;;;;;;;18.83;11.07;;;0.10;99.90;;;;;;5039182;28;20203;-78
2021/12/23 03:48:18;;;;;;;21.60;11.50;;;0.40;99.90;;;;;;5042496;28;20168;-77
2021/12/23 03:50:45;;;;;;;19.93;10.80;;;0.50;99.90;;;;;;5040913;28;20176;-82
2021/12/23 03:53:12;;;;;;;21.00;11.07;;;0.80;99.90;;;;;;5075584;28;20169;-77
2021/12/23 03:55:39;;;;;;;18.77;10.73;;;0.20;99.90;;;;;;5074954;28;20665;-87
2021/12/23 03:58:04;;;;;;;19.27;10.40;;;0.20;99.90;;;;;;5040981;28;20223;-78
2021/12/23 04:00:31;;;;;;;19.77;10.63;;;0.10;99.90;;;;;;5074411;28;20691;-86
2021/12/23 04:02:57;;;;;;;16.27;9.13;;;0.40;99.90;;;;;;5074811;28;20187;-78
2021/12/23 04:05:23;;;;;;;21.37;11.57;;;0.50;99.90;;;;;;5058715;28;20174;-85
2021/12/23 04:07:50;;;;;;;20.07;10.83;;;0.90;99.90;;;;;;5057276;28;20522;-86
2021/12/23 04:10:20;;;;;;;19.93;10.57;;;1.10;99.90;;;;;;5057148;28;20173;-77
2021/12/23 04:12:48;;;;;;;21.47;9.70;;;1.30;99.90;;;;;;5057681;28;20181;-86
2021/12/23 04:15:14;;;;;;;19.10;10.37;;;1.40;99.90;;;;;;5041191;28;20197;-81
2021/12/23 04:17:40;;;;;;;21.00;10.77;;;1.30;99.90;;;;;;5041786;28;20176;-77
2021/12/23 04:20:52;;;;;;;22.13;11.80;;;1.30;99.90;;;;;;5074695;28;20176;-85
2021/12/23 04:23:00;;;;;;;20.93;10.93;;;1.30;99.90;;;;;;5070097;28;21085;-87
2021/12/23 04:25:28;;;;;;;22.13;11.57;;;0.60;99.90;;;;;;5075348;28;20661;-78
2021/12/23 04:28:00;;;;;;;19.60;10.77;;;0.10;99.90;;;;;;5057880;28;20564;-77
2021/12/23 04:30:26;;;;;;;22.07;10.77;;;0.40;99.90;;;;;;5040529;28;20522;-87
2021/12/23 04:32:53;;;;;;;22.27;10.93;;;0.40;99.90;;;;;;5040827;28;20674;-78
2021/12/23 04:35:19;;;;;;;19.37;11.17;;;0.30;99.90;;;;;;5073502;28;20701;-81
2021/12/23 04:37:44;;;;;;;20.77;10.90;;;0.90;99.90;;;;;;5056337;28;20172;-86
2021/12/23 04:40:13;;;;;;;19.40;10.53;;;0.80;99.90;;;;;;5073954;28;20238;-78
2021/12/23 04:42:39;;;;;;;17.97;9.57;;;0.90;99.90;;;;;;5057908;28;20604;-78
2021/12/23 04:45:06;;;;;;;18.77;9.70;;;0.90;99.90;;;;;;5073057;28;20176;-78
2021/12/23 04:47:32;;;;;;;19.03;9.77;;;0.30;99.90;;;;;;5072882;28;20186;-77
2021/12/23 04:49:58;;;;;;;18.10;10.23;;;0.70;99.90;;;;;;5056184;28;20183;-85
2021/12/23 04:52:24;;;;;;;22.83;11.17;;;1.20;99.90;;;;;;5056452;28;20169;-86
2021/12/23 04:54:50;;;;;;;19.87;10.03;;;1.30;99.90;;;;;;5055927;28;20221;-77
2021/12/23 04:57:15;;;;;;;24.97;11.30;;;1.30;99.90;;;;;;5056866;28;20193;-85
2021/12/23 04:59:41;;;;;;;20.90;9.83;;;1.00;99.90;;;;;;5073836;28;20213;-84
2021/12/23 05:02:08;;;;;;;20.20;10.13;;;0.60;99.90;;;;;;5056215;28;20173;-86
2021/12/23 05:04:34;;;;;;;19.67;10.03;;;0.60;99.90;;;;;;5073525;28;20171;-78
2021/12/23 05:07:00;;;;;;;19.20;10.80;;;1.00;99.90;;;;;;5056104;28;20168;-77
2021/12/23 05:09:26;;;;;;;19.03;9.63;;;1.10;99.90;;;;;;5056224;28;20184;-80
2021/12/23 05:11:51;;;;;;;19.03;10.17;;;1.20;99.90;;;;;;5072748;28;20203;-87
2021/12/23 05:14:17;;;;;;;18.37;9.93;;;1.20;99.90;;;;;;5073174;28;20279;-86
2021/12/23 05:16:43;;;;;;;21.10;10.27;;;1.10;99.90;;;;;;5074980;28;20180;-86
2021/12/23 05:19:09;;;;;;;21.67;9.97;;;1.10;99.90;;;;;;5040073;28;20741;-86
2021/12/23 05:21:35;;;;;;;18.30;9.73;;;0.90;99.90;;;;;;5073713;28;20215;-85
2021/12/23 05:24:00;;;;;;;18.13;9.27;;;0.90;99.90;;;;;;5056471;28;20211;-79
2021/12/23 05:26:26;;;;;;;22.07;11.03;;;1.10;99.90;;;;;;5056655;28;20185;-87
2021/12/23 05:28:52;;;;;;;18.77;10.03;;;0.80;99.90;;;;;;5057389;28;20226;-77
2021/12/23 05:31:18;;;;;;;15.53;8.90;;;0.60;99.90;;;;;;5038651;28;20188;-79
2021/12/23 05:33:43;;;;;;;23.40;11.87;;;0.60;99.90;;;;;;5072410;28;20177;-77
2021/12/23 05:36:12;;;;;;;19.03;10.23;;;0.90;99.90;;;;;;5055661;28;20176;-80
2021/12/23 05:38:38;;;;;;;17.80;9.23;;;1.10;99.90;;;;;;5073854;28;20207;-88
2021/12/23 05:41:04;;;;;;;15.00;8.53;;;1.50;99.90;;;;;;5056782;28;20671;-88
2021/12/23 05:43:30;;;;;;;17.50;9.63;;;0.40;99.90;;;;;;5038901;28;20244;-80
2021/12/23 05:45:55;;;;;;;20.50;10.20;;;0.50;99.90;;;;;;5055756;28;20315;-79
2021/12/23 05:48:22;;;;;;;17.70;10.67;;;0.90;99.90;;;;;;5072397;28;20526;-79
2021/12/23 05:50:48;;;;;;;17.57;9.77;;;1.70;99.90;;;;;;5072430;28;20176;-81
2021/12/23 05:53:14;;;;;;;21.43;10.47;;;1.20;99.90;;;;;;5055899;28;20572;-86
2021/12/23 05:55:40;;;;;;;19.13;10.60;;;1.30;99.90;;;;;;5051749;28;20187;-79
2021/12/23 05:58:05;;;;;;;20.87;11.23;;;1.20;99.90;;;;;;5036735;28;20252;-86
2021/12/23 06:00:32;;;;;;;19.37;10.40;;;0.80;99.90;;;;;;5069401;28;20177;-77
2021/12/23 06:03:00;;;;;;;20.60;10.33;;;0.80;99.90;;;;;;5053750;28;20165;-78
2021/12/23 06:05:27;;;;;;;19.17;10.00;;;1.00;99.90;;;;;;5053026;28;20177;-83
2021/12/23 06:07:53;;;;;;;19.40;10.70;;;1.20;99.90;;;;;;5068459;28;20235;-85
2021/12/23 06:10:20;;;;;;;21.67;10.63;;;1.30;99.90;;;;;;5053510;28;20173;-87
2021/12/23 06:12:46;;;;;;;18.70;9.83;;;1.30;99.90;;;;;;5052483;28;20177;-87
2021/12/23 06:15:13;;;;;;;20.90;10.23;;;1.70;99.90;;;;;;5052957;28;20213;-78
2021/12/23 06:17:39;;;;;;;20.03;9.87;;;1.10;99.90;;;;;;5054847;28;20173;-77
2021/12/23 06:20:07;;;;;;;23.77;11.60;;;1.00;99.90;;;;;;5054289;28;20219;-85
2021/12/23 06:22:35;;;;;;;22.57;10.60;;;1.20;99.90;;;;;;5073011;28;20180;-78
2021/12/23 06:25:03;;;;;;;18.87;9.77;;;1.10;99.90;;;;;;5073431;28;20168;-87
2021/12/23 06:27:29;;;;;;;18.97;9.67;;;1.00;99.90;;;;;;5055572;28;20543;-78
2021/12/23 06:29:55;;;;;;;20.17;9.90;;;1.00;99.90;;;;;;5071471;28;20207;-78
2021/12/23 06:32:21;;;;;;;16.77;10.23;;;1.10;99.90;;;;;;5071808;28;20283;-86
2021/12/23 06:34:47;;;;;;;17.30;9.17;;;1.20;99.90;;;;;;5071125;28;20184;-76
2021/12/23 06:37:13;;;;;;;22.77;9.60;;;1.10;99.90;;;;;;5055894;28;20202;-86
2021/12/23 06:39:39;;;;;;;17.27;9.37;;;1.10;99.90;;;;;;5037533;28;20287;-78
2021/12/23 06:42:06;;;;;;;19.13;9.87;;;1.20;99.90;;;;;;5072162;28;20258;-78
2021/12/23 06:44:32;;;;;;;19.33;9.83;;;1.30;99.90;;;;;;5054970;28;20181;-83
2021/12/23 06:46:58;;;;;;;17.80;9.27;;;1.40;99.90;;;;;;5055093;28;20186;-77
2021/12/23 06:49:24;;;;;;;20.70;10.90;;;1.40;99.90;;;;;;5072294;28;20172;-75
2021/12/23 06:51:49;;;;;;;20.27;10.93;;;1.40;99.90;;;;;;5037645;28;20184;-88
2021/12/23 06:54:17;;;;;;;16.83;9.27;;;1.30;99.90;;;;;;5072519;28;20264;-86
2021/12/23 06:56:43;;;;;;;23.93;10.40;;;1.30;99.90;;;;;;5038070;28;20185;-79
2021/12/23 06:59:09;;;;;;;23.77;11.77;;;1.40;99.90;;;;;;5019985;28;20208;-84
2021/12/23 07:01:35;;;;;;;22.00;10.20;;;1.40;99.90;;;;;;5072541;28;20183;-77
2021/12/23 07:04:14;;;;;;;18.30;10.50;;;1.40;99.90;;;;;;5087552;28;20200;-78
2021/12/23 07:06:47;;;;;;;16.37;9.03;;;1.30;99.90;;;;;;5055641;28;20187;-86
2021/12/23 07:09:13;;;;;;;16.93;10.40;;;1.20;99.90;;;;;;5071532;28;20557;-86
2021/12/23 07:11:39;;;;;;;18.57;9.50;;;1.20;99.90;;;;;;5053408;28;20687;-77
2021/12/23 07:14:05;;;;;;;19.60;9.70;;;1.10;99.90;;;;;;5070540;28;20192;-82
2021/12/23 07:16:32;;;;;;;17.97;9.67;;;1.20;99.90;;;;;;5062012;28;20312;-87
2021/12/23 07:18:57;;;;;;;18.13;9.10;;;1.30;99.90;;;;;;5070912;28;20215;-79
2021/12/23 07:21:23;;;;;;;18.33;9.20;;;1.30;99.90;;;;;;5070899;28;20177;-86
2021/12/23 07:23:49;;;;;;;21.20;11.17;;;1.00;99.90;;;;;;5052457;28;20178;-86
2021/12/23 07:26:17;;;;;;;21.67;11.10;;;0.90;99.90;;;;;;5037349;28;20276;-78
2021/12/23 07:28:44;;;;;;;19.57;10.27;;;1.20;99.90;;;;;;5073079;28;20188;-86
2021/12/23 07:31:09;;;;;;;17.17;9.63;;;1.40;99.90;;;;;;5060605;28;20189;-86
2021/12/23 07:33:35;;;;;;;17.70;9.37;;;1.70;99.90;;;;;;5038253;28;20626;-78
2021/12/23 07:36:04;;;;;;;19.47;9.97;;;1.60;99.90;;;;;;5073134;28;20187;-78
2021/12/23 07:38:35;;;;;;;20.10;10.10;;;1.60;99.90;;;;;;5053056;28;20263;-86
2021/12/23 07:41:02;;;;;;;18.07;9.30;;;1.70;99.90;;;;;;5070950;28;20296;-79
2021/12/23 07:43:31;;;;;;;19.80;9.93;;;1.60;99.90;;;;;;5073190;28;20177;-79
2021/12/23 07:45:59;;;;;;;17.10;10.13;;;1.50;99.90;;;;;;5072305;28;20623;-78
2021/12/23 07:48:25;;;;;;;20.27;10.27;;;1.50;99.90;;;;;;5057676;28;20264;-86
2021/12/23 07:50:50;;;;;;;18.77;9.60;;;1.50;99.90;;;;;;5071684;28;20216;-78
2021/12/23 07:53:16;;;;;;;17.87;9.77;;;1.60;99.90;;;;;;5038040;28;20180;-86
2021/12/23 07:55:43;;;;;;;17.90;9.50;;;1.60;99.90;;;;;;5070665;28;20177;-84
2021/12/23 07:58:09;;;;;;;21.03;10.27;;;1.60;99.90;;;;;;5037243;28;20216;-78
2021/12/23 08:00:36;;;;;;;25.73;10.80;;;1.50;99.90;;;;;;5072046;28;20200;-85
2021/12/23 08:03:02;;;;;;;16.87;9.33;;;1.30;99.90;;;;;;5064010;28;20204;-79
2021/12/23 08:05:30;;;;;;;23.20;10.93;;;1.50;99.90;;;;;;5054742;28;20188;-86
2021/12/23 08:07:57;;;;;;;19.10;10.07;;;1.60;99.90;;;;;;5037750;28;20184;-85
2021/12/23 08:10:23;;;;;;;20.80;10.37;;;1.70;99.90;;;;;;5038692;28;20262;-79
2021/12/23 08:12:49;;;;;;;19.30;9.73;;;1.70;99.90;;;;;;5070687;28;20185;-79
2021/12/23 08:15:15;;;;;;;19.07;10.03;;;1.60;99.90;;;;;;5069824;28;20740;-82
2021/12/23 08:17:41;;;;;;;16.47;9.47;;;1.70;99.90;;;;;;5068657;28;20531;-78
2021/12/23 08:20:08;;;;;;;23.03;10.50;;;1.60;99.90;;;;;;5059529;28;20212;-77
2021/12/23 08:22:35;;;;;;;20.13;10.60;;;1.60;99.90;;;;;;5070811;28;20263;-85
2021/12/23 08:25:00;;;;;;;16.67;10.07;;;1.60;99.90;;;;;;5073896;28;20180;-79
2021/12/23 08:27:29;;;;;;;18.93;10.47;;;1.60;99.90;;;;;;5074009;28;20539;-80
2021/12/23 08:29:55;;;;;;;19.67;10.87;;;2.10;99.90;;;;;;5071184;28;20195;-79
2021/12/23 08:32:21;;;;;;;22.63;12.17;;;1.80;99.90;;;;;;5058784;28;20702;-82
2021/12/23 08:34:47;;;;;;;20.10;10.50;;;1.80;99.90;;;;;;5095781;28;20199;-79
2021/12/23 08:37:13;;;;;;;20.80;10.53;;;1.70;99.90;;;;;;5075556;28;20188;-79
2021/12/23 08:39:40;;;;;;;16.63;9.90;;;1.70;99.90;;;;;;5063819;28;20212;-90
2021/12/23 08:42:07;;;;;;;19.93;10.77;;;1.80;99.90;;;;;;5079195;28;20187;-88
2021/12/23 08:44:33;;;;;;;20.57;10.63;;;1.90;99.90;;;;;;5046805;28;20561;-87
2021/12/23 08:47:00;;;;;;;20.50;11.87;;;2.00;99.90;;;;;;5079609;28;20177;-89
2021/12/23 08:49:26;;;;;;;21.90;10.90;;;2.00;99.90;;;;;;5060629;28;20210;-82
2021/12/23 08:51:52;;;;;;;21.73;12.10;;;2.20;99.90;;;;;;5059277;28;20238;-82
2021/12/23 08:54:21;;;;;;;21.83;11.53;;;2.20;99.90;;;;;;5089305;28;20191;-84
2021/12/23 08:56:47;;;;;;;19.93;11.63;;;2.10;99.90;;;;;;5075202;28;20729;-86
2021/12/23 08:59:17;;;;;;;23.30;12.73;;;2.10;99.90;;;;;;5056559;28;20212;-85
2021/12/23 09:01:43;;;;;;;26.00;12.03;;;2.10;99.90;;;;;;5069904;28;20542;-80
2021/12/23 09:04:11;;;;;;;27.37;13.17;;;2.20;99.90;;;;;;5057711;28;20201;-87
2021/12/23 09:06:37;;;;;;;22.47;11.90;;;2.20;99.90;;;;;;5057235;28;20184;-84
2021/12/23 09:09:07;;;;;;;22.13;12.10;;;3.30;99.90;;;;;;5038820;28;20185;-91
2021/12/23 09:11:34;;;;;;;20.33;11.67;;;2.60;99.90;;;;;;5042220;28;20181;-85
2021/12/23 09:14:00;;;;;;;24.47;12.00;;;3.10;99.90;;;;;;5056707;28;20640;-82
2021/12/23 09:16:27;;;;;;;21.73;12.33;;;2.70;99.90;;;;;;5057895;28;20270;-88
2021/12/23 09:18:53;;;;;;;23.33;11.30;;;2.60;99.90;;;;;;5074198;28;20675;-80
2021/12/23 09:21:22;;;;;;;26.47;12.90;;;2.50;99.90;;;;;;5044401;28;20219;-80
2021/12/23 09:23:47;;;;;;;24.40;12.40;;;2.50;99.90;;;;;;5042544;28;20511;-81
2021/12/23 09:26:13;;;;;;;23.63;12.20;;;2.60;99.90;;;;;;5062876;28;20179;-84
2021/12/23 09:29:04;;;;;;;23.90;11.40;;;2.80;99.90;;;;;;5057841;28;20184;-87
2021/12/23 09:34:34;;;;;;;21.20;12.10;;;2.60;99.90;;;;;;5033015;28;20194;-81
2021/12/23 09:37:00;;;;;;;25.07;11.63;;;2.80;99.90;;;;;;5016509;28;20196;-86
2021/12/23 09:39:27;;;;;;;23.30;11.00;;;2.90;99.90;;;;;;5033948;28;20239;-80
2021/12/23 09:41:53;;;;;;;20.17;11.80;;;2.90;99.90;;;;;;5074276;28;20199;-79
2021/12/23 09:44:19;;;;;;;22.13;11.40;;;2.90;99.90;;;;;;5073620;28;20177;-83
2021/12/23 09:46:45;;;;;;;22.53;11.87;;;2.80;99.90;;;;;;5043171;28;20557;-80
2021/12/23 09:49:10;;;;;;;20.50;11.20;;;2.70;99.90;;;;;;5089253;28;20179;-83
2021/12/23 09:51:36;;;;;;;21.77;11.83;;;2.80;99.90;;;;;;5055776;28;20180;-77
2021/12/23 09:54:07;;;;;;;20.83;11.80;;;2.80;99.90;;;;;;5071615;28;20177;-76
2021/12/23 09:56:35;;;;;;;25.27;11.60;;;2.90;99.90;;;;;;5065527;28;20180;-83
2021/12/23 09:59:05;;;;;;;23.23;11.93;;;2.80;99.90;;;;;;5069545;28;20243;-81
2021/12/23 10:01:32;;;;;;;24.77;11.23;;;2.90;99.90;;;;;;5053130;28;20187;-81
2021/12/23 10:03:59;;;;;;;20.47;11.50;;;3.00;99.90;;;;;;5067731;28;20588;-82
2021/12/23 10:06:26;;;;;;;25.27;11.43;;;3.20;99.90;;;;;;5039939;28;20177;-77
2021/12/23 10:08:53;;;;;;;21.83;11.30;;;3.20;99.90;;;;;;5070916;28;20276;-77
2021/12/23 10:11:32;;;;;;;22.00;11.73;;;3.30;99.90;;;;;;5052563;28;20968;-77
2021/12/23 10:31:03;;;;;;;22.50;10.93;;;3.40;99.90;;;;;;5045386;28;20192;-78
2021/12/23 10:37:03;;;;;;;21.07;10.97;;;3.50;99.90;;;;;;5052453;28;20255;-82
2021/12/23 10:39:23;;;;;;;21.33;11.93;;;3.70;99.90;;;;;;5055143;28;20238;-79
2021/12/23 10:41:49;;;;;;;24.60;11.47;;;3.80;99.90;;;;;;5064509;28;20173;-77
2021/12/23 10:44:29;;;;;;;18.40;10.20;;;3.70;99.90;;;;;;5069498;28;20176;-81
2021/12/23 10:46:55;;;;;;;21.63;10.97;;;3.80;99.90;;;;;;5068522;28;20630;-82
2021/12/23 10:49:43;;;;;;;20.27;10.70;;;3.80;99.90;;;;;;5086672;28;20172;-82
2021/12/23 10:52:16;;;;;;;18.47;10.93;;;3.80;99.90;;;;;;5069375;28;20226;-78
2021/12/23 11:00:22;;;;;;;19.20;10.53;;;3.90;99.90;;;;;;5055223;28;20184;-77
2021/12/23 11:03:06;;;;;;;22.77;11.27;;;3.90;99.90;;;;;;5053392;28;20180;-80
2021/12/23 11:05:38;;;;;;;22.03;11.97;;;3.90;99.90;;;;;;5063542;28;20244;-81
2021/12/23 11:08:24;;;;;;;24.13;11.03;;;4.10;99.90;;;;;;5087632;28;20199;-79
2021/12/23 11:38:18;;;;;;;19.90;10.90;;;4.30;99.90;;;;;;5086107;28;20286;-79
2021/12/23 11:45:45;;;;;;;22.83;11.67;;;4.40;99.90;;;;;;5070708;28;20180;-80
2021/12/23 11:48:14;;;;;;;19.93;10.77;;;4.40;99.90;;;;;;5088235;28;20173;-79
2021/12/23 11:51:07;;;;;;;20.10;10.30;;;4.50;99.90;;;;;;5086496;28;20181;-82
2021/12/23 11:53:34;;;;;;;18.47;10.33;;;4.50;99.90;;;;;;5056673;28;20200;-76
2021/12/23 11:56:03;;;;;;;21.13;10.60;;;4.70;99.90;;;;;;5036599;28;20177;-78
2021/12/23 11:58:29;;;;;;;23.27;11.50;;;4.70;99.90;;;;;;5068987;28;20208;-78
2021/12/23 12:01:08;;;;;;;20.47;10.73;;;4.70;99.90;;;;;;5083616;28;20183;-83
2021/12/23 12:03:52;;;;;;;20.50;10.77;;;4.70;99.90;;;;;;5062026;28;20180;-75
2021/12/23 12:06:21;;;;;;;19.07;11.03;;;4.70;99.90;;;;;;5056583;28;20176;-81
2021/12/23 12:08:47;;;;;;;25.60;11.97;;;4.80;99.90;;;;;;5040774;28;20635;-85
2021/12/23 12:11:22;;;;;;;19.43;10.80;;;4.70;99.90;;;;;;5056238;28;20188;-80
2021/12/23 12:13:49;;;;;;;20.20;11.27;;;4.80;99.90;;;;;;5089593;28;20216;-77
2021/12/23 12:16:35;;;;;;;23.90;12.50;;;4.90;99.90;;;;;;5063325;28;20287;-80
2021/12/23 12:19:10;;;;;;;22.93;12.20;;;4.90;99.90;;;;;;5059042;28;20205;-77
2021/12/23 12:21:36;;;;;;;19.57;10.40;;;5.00;99.90;;;;;;5057585;28;20184;-82
2021/12/23 12:24:21;;;;;;;20.93;10.77;;;5.00;99.90;;;;;;5089866;28;20180;-79
2021/12/23 12:26:57;;;;;;;20.73;10.77;;;5.00;99.90;;;;;;5057570;28;20306;-78
2021/12/23 12:29:34;;;;;;;19.73;10.47;;;5.10;99.90;;;;;;5073706;28;20203;-84
2021/12/23 12:32:00;;;;;;;24.63;12.50;;;5.10;99.90;;;;;;5056904;28;20253;-84
2021/12/23 12:34:36;;;;;;;20.03;11.30;;;5.20;99.90;;;;;;5040279;28;20712;-80
2021/12/23 12:37:07;;;;;;;21.27;11.43;;;5.00;99.90;;;;;;5057877;28;20184;-84
2021/12/23 12:39:36;;;;;;;19.13;10.23;;;5.10;99.90;;;;;;5043866;28;20212;-80
2021/12/23 12:42:10;;;;;;;19.73;11.17;;;5.20;99.90;;;;;;5074489;28;20628;-84
2021/12/23 12:44:44;;;;;;;20.87;10.40;;;5.30;99.90;;;;;;5073357;28;20200;-83
2021/12/23 12:47:21;;;;;;;26.33;10.73;;;5.30;99.90;;;;;;5056202;28;20176;-84
2021/12/23 12:49:50;;;;;;;20.60;10.70;;;5.40;99.90;;;;;;5086814;28;20241;-81
2021/12/23 12:52:31;;;;;;;20.43;11.17;;;5.40;99.90;;;;;;5038381;28;20188;-79
2021/12/23 12:55:26;;;;;;;22.37;11.43;;;5.20;99.90;;;;;;5068757;28;20251;-82
2021/12/23 12:57:55;;;;;;;21.07;11.47;;;5.30;99.90;;;;;;5084236;28;20216;-78
2021/12/23 13:00:39;;;;;;;22.33;10.90;;;5.30;99.90;;;;;;5090271;28;20371;-80
2021/12/23 13:03:14;;;;;;;22.43;10.57;;;5.40;99.90;;;;;;5056433;28;20227;-81
2021/12/23 13:05:44;;;;;;;18.33;10.50;;;5.40;99.90;;;;;;5056137;28;20172;-82
2021/12/23 13:08:23;;;;;;;21.30;11.30;;;5.40;99.90;;;;;;5054587;28;20282;-79
2021/12/23 13:10:50;;;;;;;20.33;11.00;;;5.40;99.90;;;;;;5072201;28;20200;-77
2021/12/23 13:13:32;;;;;;;20.63;11.30;;;5.50;99.90;;;;;;5066870;28;20188;-82
2021/12/23 13:16:14;;;;;;;23.13;11.00;;;5.50;99.90;;;;;;5072747;28;20260;-82
2021/12/23 13:18:41;;;;;;;19.30;11.50;;;5.50;99.90;;;;;;5071250;28;20232;-79
2021/12/23 13:21:08;;;;;;;17.83;10.77;;;5.50;99.90;;;;;;5071577;28;20549;-85
2021/12/23 13:23:40;;;;;;;22.07;10.47;;;5.50;99.90;;;;;;5066664;28;20597;-78
2021/12/23 13:26:10;;;;;;;20.73;11.07;;;5.60;99.90;;;;;;5070799;28;20257;-84
2021/12/23 13:28:41;;;;;;;19.87;10.73;;;5.60;99.90;;;;;;5053708;28;20195;-79
2021/12/23 13:31:17;;;;;;;19.10;10.23;;;5.70;99.90;;;;;;5057115;28;20557;-85
2021/12/23 13:33:56;;;;;;;21.80;10.90;;;5.70;99.90;;;;;;5070362;28;20176;-86
2021/12/23 13:36:29;;;;;;;17.37;9.97;;;5.60;99.90;;;;;;5070243;28;20222;-86
2021/12/23 13:38:58;;;;;;;20.40;10.93;;;5.60;99.90;;;;;;5039185;28;20204;-78
2021/12/23 13:41:30;;;;;;;20.47;11.03;;;5.70;99.90;;;;;;5085415;28;20184;-86
2021/12/23 13:44:16;;;;;;;18.10;8.73;;;5.70;99.90;;;;;;5087730;28;20248;-77
2021/12/23 13:46:44;;;;;;;21.63;11.93;;;5.70;99.90;;;;;;5074258;28;20222;-79
2021/12/23 13:49:11;;;;;;;18.07;9.67;;;5.70;99.90;;;;;;5070167;28;20588;-76